Nearby METAR Reports

 

KMTN - Baltimore/Martin, Maryland, USA
Distance from station: SSE 8mi, 13km
Updated: Fri, 06-Mar-2015 9:45am EST
Clear
Clear
 Wind from NW
Wind: NW 9 mph , 15 km/h
Temperature: 19°F , -7°C
Wind Chill: 8°F , -13°C
Dew Point: 5°F , -15°C
Humidity: 53%
Barometer: 30.64 inHg , 1037.6 hPa
Clouds: Clear
Visibility: 10 miles , 16 km
2015/03/06 14:45 KMTN 061445Z 32008KT 10SM SKC M07/M15 A3064
KDMH - Baltimore/Dwntwn, Maryland, USA
Distance from station: SW 12mi, 19km
Updated: Fri, 06-Mar-2015 9:54am EST

 
Temperature: 18°F , -8°C
Dew Point: 3°F , -16°C
Humidity: 53%
Barometer: 30.60 inHg , 1036.2 hPa
2015/03/06 14:54 KDMH 061454Z AUTO M08/M16 A3060 RMK AO1 SLP363 T10781161 51009
 
KBWI - Balto/Wash Intl, Maryland, USA
Distance from station: SSW 20mi, 33km
Updated: Fri, 06-Mar-2015 9:54am EST
Clear
Clear
 Wind from NNE
Wind: NNE 8 mph , 13 km/h
Temperature: 18°F , -8°C
Wind Chill: 8°F , -13°C
Dew Point: 3°F , -16°C
Humidity: 53%
Barometer: 30.61 inHg , 1036.6 hPa
Clouds: Clear
Visibility: 10 miles , 16 km
2015/03/06 14:54 KBWI 061454Z 02007KT 10SM CLR M08/M16 A3061 RMK AO2 SLP366 T10781161 51015
KDMW - Carroll Cnty, Maryland, USA
Distance from station: WNW 30mi, 48km
Updated: Fri, 06-Mar-2015 10:45am EST
Clear
Clear
 Wind from WNW
Wind: WNW 3 mph , 6 km/h
Temperature: 12°F , -11°C
Dew Point: 3°F , -16°C
Humidity: 67%
Barometer: 30.54 inHg , 1034.2 hPa
Clouds: Clear
Visibility: 10 miles , 16 km
2015/03/06 15:45 KDMW 061545Z AUTO 30003KT 10SM CLR M11/M16 A3054 RMK AO2
 
KNAK - Annapolis/Naval, Maryland, USA
Distance from station: S 30mi, 48km
Updated: Fri, 06-Mar-2015 9:54am EST

 
Barometer: 30.61 inHg , 1036.6 hPa
2015/03/06 14:54 KNAK 061454Z AUTO A3061 RMK AO2 SLP369 51015 PWINO FZRANO $
KW29 - Stevensville, Maryland, USA
Distance from station: SSE 31mi, 50km
Updated: Fri, 06-Mar-2015 10:47am EST

 Wind from N
Wind: N 9 mph , 15 km/h
Temperature: 21°F , -6°C
Wind Chill: 11°F , -12°C
Dew Point: 5°F , -15°C
Humidity: 49%
Barometer: 30.60 inHg , 1036.2 hPa
2015/03/06 15:47 KW29 061547Z AUTO 01008KT M06/M15 A3060 RMK AO1 PWINO
 
KCGS - College Park, Maryland, USA
Distance from station: SW 38mi, 61km
Updated: Fri, 06-Mar-2015 10:45am EST
Clear
Clear
 Wind from NNE
Wind: NNE 6 mph , 9 km/h
Temperature: 21°F , -6°C
Wind Chill: 13°F , -11°C
Dew Point: 5°F , -15°C
Humidity: 49%
Barometer: 30.60 inHg , 1036.2 hPa
Clouds: Clear
Visibility: 10 miles , 16 km
2015/03/06 15:45 KCGS 061545Z AUTO 03005KT 10SM CLR M06/M15 A3060 RMK AO1
KGAI - Gaithersburg, Maryland, USA
Distance from station: WSW 40mi, 65km
Updated: Fri, 06-Mar-2015 10:55am EST
Clear
Clear
 Wind from N
Wind: N 5 mph , 7 km/h
Temperature: 16°F , -9°C
Wind Chill: 8°F , -13°C
Dew Point: 1°F , -17°C
Humidity: 53%
Barometer: 30.60 inHg , 1036.2 hPa
Clouds: Clear
Visibility: 10 miles , 16 km
2015/03/06 15:55 KGAI 061555Z AUTO 01004KT 10SM CLR M09/M17 A3060 RMK AO1
 
KTHV - York, Pennsylvania, USA
Distance from station: NNW 40mi, 65km
Updated: Fri, 06-Mar-2015 10:53am EST
Clear
Clear
 Wind from W
Wind: W 5 mph , 7 km/h
Temperature: 14°F , -10°C
Wind Chill: 6°F , -14°C
Dew Point: 1°F , -17°C
Humidity: 57%
Barometer: 30.57 inHg , 1035.2 hPa
Clouds: Clear
Visibility: 10 miles , 16 km
2015/03/06 15:53 KTHV 061553Z AUTO 26004KT 10SM CLR M10/M17 A3057 RMK AO2 SLP364 T11001172
KFDK - Frederick, Maryland, USA
Distance from station: W 47mi, 75km
Updated: Fri, 06-Mar-2015 10:47am EST
Clear
Clear
 Wind from calm
Wind: Calm
Temperature: 19°F , -7°C
Dew Point: -2°F , -19°C
Humidity: 38%
Barometer: 30.63 inHg , 1037.3 hPa
Clouds: Clear
Visibility: 10 miles , 16 km
2015/03/06 15:47 KFDK 061547Z 00000KT 10SM SKC M07/M19 A3063
 
KESN - Easton/Newnam, Maryland, USA
Distance from station: SSE 48mi, 78km
Updated: Fri, 06-Mar-2015 8:50am EST
NOT Current
Clear
Clear
 Wind from NNE
Wind: NNE 13 mph , 20 km/h, Gust: 18 mph , 30 km/h
Temperature: 18°F , -8°C
Wind Chill: 5°F , -15°C
Dew Point: 7°F , -14°C
Humidity: 62%
Barometer: 30.63 inHg , 1037.3 hPa
Clouds: Clear
Visibility: 10 miles , 16 km
2015/03/06 13:50 KESN 061350Z 02011G16KT 10SM SKC M08/M14 A3063
KDCA - Washington/Natl, Washington D.c., USA
Distance from station: SW 49mi, 79km
Updated: Fri, 06-Mar-2015 10:52am EST
Clear
Clear
 Wind from NNE
Wind: NNE 5 mph , 7 km/h
Temperature: 23°F , -5°C
Wind Chill: 17°F , -8°C
Dew Point: 1°F , -17°C
Humidity: 39%
Barometer: 30.61 inHg , 1036.6 hPa
Clouds: Clear
Visibility: 10 miles , 16 km
2015/03/06 15:52 KDCA 061552Z 03004KT 10SM CLR M05/M17 A3061 RMK AO2 SLP363 T10501167
 
KLNS - Lancaster, Pennsylvania, USA
Distance from station: N 49mi, 79km
Updated: Fri, 06-Mar-2015 9:53am EST
Clear
Clear
 Wind from WNW
Wind: WNW 5 mph , 7 km/h
Temperature: 12°F , -11°C
Wind Chill: 4°F , -16°C
Dew Point: 1°F , -17°C
Humidity: 62%
Barometer: 30.57 inHg , 1035.2 hPa
Clouds: Clear
Visibility: 10 miles , 16 km
2015/03/06 14:53 KLNS 061453Z 29004KT 10SM CLR M11/M17 A3057 RMK AO2 SLP359 T11111172 50008
KILG - Wilmington, Delaware, USA
Distance from station: ENE 50mi, 81km
Updated: Fri, 06-Mar-2015 10:51am EST
Clear
Clear
 Wind from N
Wind: N 7 mph , 11 km/h
Temperature: 19°F , -7°C
Wind Chill: 10°F , -12°C
Dew Point: 5°F , -15°C
Humidity: 53%
Barometer: 30.59 inHg , 1035.9 hPa
Clouds: Clear
Visibility: 10 miles , 16 km
2015/03/06 15:51 KILG 061551Z 35006KT 10SM CLR M07/M15 A3059 RMK AO2 UPE33 SLP358 P0000 T10721150